Dwiggins, Mississippi
Current Conditions -  °F | °C
As of 7:35 AM on Friday 19 Dec 2014 (Local Time) from KRNV Reporting Station
Scattered Clouds Scattered Clouds  
Wind Chill: 37°   Ceiling: Unl
Heat Index: 43°   Visibility: 10mi
Dew Point: 42°   Wind: 10mph
Humidity: 94%   Direction: 30°NNE
Pressure: 30.21"   Gusts: NA
Location:  33.8731°N, 90.5512°W
Report Text: KRNV 191335Z AUTO 03009KT 10SM SCT026 06/05 A3021 RMK AO2 T00620053
Loading
Personal Weather Stations






























Interactive Weather Map New forecast layout! Learn more

10-Day Weather Forecast

Advertisements
Track Severe Weather on mobile